createdAt,value
2019-06-01T00:00:12.365Z,99.90
2019-06-01T00:02:58.448Z,99.90
2019-06-01T00:05:42.547Z,99.90
2019-06-01T00:08:27.335Z,99.90
2019-06-01T00:11:11.236Z,99.90
2019-06-01T00:13:55.227Z,99.90
2019-06-01T00:16:39.930Z,99.90
2019-06-01T00:19:24.579Z,99.90
2019-06-01T00:22:08.731Z,99.90
2019-06-01T00:24:52.964Z,99.90
2019-06-01T00:27:37.248Z,99.90
2019-06-01T00:30:26.931Z,99.90
2019-06-01T00:33:07.005Z,99.90
2019-06-01T00:35:51.621Z,99.90
2019-06-01T00:38:35.801Z,99.90
2019-06-01T00:41:19.903Z,99.90
2019-06-01T00:44:04.459Z,99.90
2019-06-01T00:46:48.712Z,99.90
2019-06-01T00:49:33.355Z,99.90
2019-06-01T00:52:17.689Z,99.90
2019-06-01T00:55:02.411Z,99.90
2019-06-01T00:57:47.344Z,99.90
2019-06-01T01:00:43.147Z,99.90
2019-06-01T01:03:17.651Z,99.90
2019-06-01T01:06:01.244Z,99.90
2019-06-01T01:08:47.087Z,99.90
2019-06-01T01:11:31.818Z,99.90
2019-06-01T01:14:15.763Z,99.90
2019-06-01T01:17:00.225Z,99.90
2019-06-01T01:19:44.161Z,99.90
2019-06-01T01:22:28.396Z,99.90
2019-06-01T01:25:12.314Z,99.90
2019-06-01T01:27:57.044Z,99.90
2019-06-01T01:30:40.799Z,99.90
2019-06-01T01:33:24.671Z,99.90
2019-06-01T01:36:09.134Z,99.90
2019-06-01T01:38:54.234Z,99.90
2019-06-01T01:41:39.503Z,99.90
2019-06-01T01:44:24.779Z,99.90
2019-06-01T01:47:09.668Z,99.90
2019-06-01T01:49:54.105Z,99.90
2019-06-01T01:52:38.650Z,99.90
2019-06-01T01:55:23.123Z,99.90
2019-06-01T01:58:07.807Z,99.90
2019-06-01T02:00:54.059Z,99.90
2019-06-01T02:03:37.925Z,99.90
2019-06-01T02:06:21.608Z,99.90
2019-06-01T02:09:07.233Z,99.90
2019-06-01T02:11:51.379Z,99.90
2019-06-01T02:14:35.201Z,99.90
2019-06-01T02:17:19.928Z,99.90
2019-06-01T02:20:03.886Z,99.90
2019-06-01T02:22:47.774Z,99.90
2019-06-01T02:25:32.373Z,99.90
2019-06-01T02:28:16.724Z,99.90
2019-06-01T02:31:02.063Z,99.90
2019-06-01T02:33:46.835Z,99.90
2019-06-01T02:36:30.836Z,99.90
2019-06-01T02:39:15.550Z,99.90
2019-06-01T02:42:01.061Z,99.90
2019-06-01T02:44:44.963Z,99.90
2019-06-01T02:47:28.614Z,99.90
2019-06-01T02:50:12.185Z,99.90
2019-06-01T02:52:57.272Z,99.90
2019-06-01T02:55:41.463Z,99.90
2019-06-01T02:58:25.891Z,99.90
2019-06-01T03:01:28.696Z,99.90
2019-06-01T03:04:12.419Z,99.90
2019-06-01T03:06:57.272Z,99.90
2019-06-01T03:09:41.231Z,99.90
2019-06-01T03:12:25.027Z,99.90
2019-06-01T03:15:09.521Z,99.90
2019-06-01T03:17:53.312Z,99.90
2019-06-01T03:20:37.087Z,99.90
2019-06-01T03:23:21.079Z,99.90
2019-06-01T03:26:06.199Z,99.90
2019-06-01T03:28:51.720Z,99.90
2019-06-01T03:31:36.116Z,99.90
2019-06-01T03:34:19.686Z,99.90
2019-06-01T03:37:04.953Z,99.90
2019-06-01T03:39:49.386Z,99.90
2019-06-01T03:42:33.942Z,99.90
2019-06-01T03:45:18.286Z,99.90
2019-06-01T03:48:02.599Z,99.90
2019-06-01T03:50:46.878Z,99.90
2019-06-01T03:53:30.690Z,99.90
2019-06-01T03:56:14.965Z,99.90
2019-06-01T03:58:58.861Z,99.90
2019-06-01T04:01:43.563Z,99.90
2019-06-01T04:04:28.105Z,99.90
2019-06-01T04:07:13.268Z,99.90
2019-06-01T04:09:56.885Z,99.90
2019-06-01T04:12:40.911Z,99.90
2019-06-01T04:15:25.789Z,99.90
2019-06-01T04:18:10.347Z,99.90
2019-06-01T04:20:54.626Z,99.90
2019-06-01T04:23:39.029Z,99.90
2019-06-01T04:26:23.628Z,99.90
2019-06-01T04:29:08.266Z,99.90
2019-06-01T04:31:53.239Z,99.90
2019-06-01T04:34:37.582Z,99.90
2019-06-01T04:37:21.101Z,99.90
2019-06-01T04:40:05.330Z,99.90
2019-06-01T04:42:49.581Z,99.90
2019-06-01T04:45:34.890Z,99.90
2019-06-01T04:48:19.325Z,99.90
2019-06-01T04:51:03.056Z,99.90
2019-06-01T04:53:46.106Z,99.90
2019-06-01T04:56:30.603Z,99.90
2019-06-01T04:59:15.372Z,99.90
2019-06-01T05:01:59.846Z,99.90
2019-06-01T05:04:43.895Z,99.90
2019-06-01T05:07:28.463Z,99.90
2019-06-01T05:10:14.246Z,99.90
2019-06-01T05:12:59.053Z,99.90
2019-06-01T05:15:43.544Z,99.90
2019-06-01T05:18:27.142Z,99.90
2019-06-01T05:21:10.765Z,99.90
2019-06-01T05:23:54.526Z,99.90
2019-06-01T05:26:39.014Z,99.90
2019-06-01T05:29:23.324Z,99.90
2019-06-01T05:32:06.984Z,99.90
2019-06-01T05:34:50.907Z,99.90
2019-06-01T05:37:34.864Z,99.90
2019-06-01T05:40:19.758Z,99.90
2019-06-01T05:43:04.117Z,99.90
2019-06-01T05:45:48.359Z,99.90
2019-06-01T05:48:32.718Z,99.90
2019-06-01T05:51:18.571Z,99.90
2019-06-01T05:54:02.988Z,99.90
2019-06-01T05:56:47.326Z,99.90
2019-06-01T05:59:31.852Z,99.90
2019-06-01T06:02:16.052Z,99.90
2019-06-01T06:05:00.271Z,99.90
2019-06-01T06:07:43.868Z,99.90
2019-06-01T06:10:28.158Z,99.90
2019-06-01T06:13:11.688Z,99.90
2019-06-01T06:15:56.043Z,99.90
2019-06-01T06:18:40.102Z,99.90
2019-06-01T06:21:24.541Z,99.90
2019-06-01T06:24:08.703Z,99.90
2019-06-01T06:26:52.747Z,99.90
2019-06-01T06:29:37.753Z,99.90
2019-06-01T06:32:23.352Z,99.90
2019-06-01T06:35:07.964Z,99.90
2019-06-01T06:37:52.925Z,99.90
2019-06-01T06:40:37.324Z,99.90
2019-06-01T06:43:29.711Z,99.90
2019-06-01T06:46:06.741Z,99.70
2019-06-01T06:48:51.355Z,99.00
2019-06-01T06:51:35.211Z,99.90
2019-06-01T06:54:19.865Z,99.10
2019-06-01T06:57:04.721Z,97.50
2019-06-01T06:59:49.052Z,97.70
2019-06-01T07:02:32.778Z,97.30
2019-06-01T07:05:17.232Z,97.60
2019-06-01T07:08:01.195Z,98.10
2019-06-01T07:10:45.228Z,97.00
2019-06-01T07:13:28.990Z,97.50
2019-06-01T07:16:13.573Z,97.40
2019-06-01T07:18:57.354Z,96.20
2019-06-01T07:21:41.388Z,95.80
2019-06-01T07:24:26.038Z,96.20
2019-06-01T07:27:11.258Z,96.70
2019-06-01T07:29:55.505Z,96.60
2019-06-01T07:32:39.662Z,97.00
2019-06-01T07:35:24.974Z,97.60
2019-06-01T07:38:09.071Z,96.10
2019-06-01T07:40:52.940Z,96.10
2019-06-01T07:43:36.545Z,95.80
2019-06-01T07:46:20.841Z,95.30
2019-06-01T07:49:06.373Z,95.50
2019-06-01T07:51:50.756Z,96.40
2019-06-01T07:54:34.462Z,95.30
2019-06-01T07:57:18.583Z,94.00
2019-06-01T08:00:03.913Z,93.80
2019-06-01T08:02:50.277Z,93.40
2019-06-01T08:05:34.569Z,93.80
2019-06-01T08:08:18.048Z,93.60
2019-06-01T08:10:50.654Z,92.30
2019-06-01T08:13:35.835Z,92.10
2019-06-01T08:16:21.434Z,91.60
2019-06-01T08:19:05.343Z,90.70
2019-06-01T08:21:49.759Z,91.10
2019-06-01T08:24:33.534Z,89.90
2019-06-01T08:27:17.618Z,88.90
2019-06-01T08:30:01.871Z,89.90
2019-06-01T08:32:46.049Z,88.80
2019-06-01T08:35:31.242Z,89.00
2019-06-01T08:38:15.327Z,89.30
2019-06-01T08:40:59.830Z,86.70
2019-06-01T08:43:43.479Z,87.20
2019-06-01T08:46:27.709Z,85.90
2019-06-01T08:49:12.941Z,86.00
2019-06-01T08:51:56.749Z,85.10
2019-06-01T08:54:40.573Z,85.80
2019-06-01T08:57:24.363Z,83.30
2019-06-01T08:59:56.663Z,82.20
2019-06-01T09:02:40.298Z,82.00
2019-06-01T09:05:26.205Z,80.90
2019-06-01T09:08:09.505Z,81.10
2019-06-01T09:10:53.935Z,81.20
2019-06-01T09:13:37.473Z,82.90
2019-06-01T09:16:25.374Z,85.50
2019-06-01T09:19:11.324Z,85.20
2019-06-01T09:21:54.573Z,83.10
2019-06-01T09:24:38.497Z,83.00
2019-06-01T09:27:22.399Z,83.40
2019-06-01T09:30:06.888Z,85.50
2019-06-01T09:32:51.194Z,82.50
2019-06-01T09:35:53.687Z,82.20
2019-06-01T09:38:20.839Z,79.80
2019-06-01T09:41:04.650Z,80.10
2019-06-01T09:43:48.639Z,79.40
2019-06-01T09:46:34.005Z,80.20
2019-06-01T09:49:18.853Z,79.80
2019-06-01T09:52:03.124Z,78.50
2019-06-01T09:54:46.877Z,78.20
2019-06-01T09:57:31.991Z,76.60
2019-06-01T10:00:15.784Z,76.00
2019-06-01T10:02:59.986Z,77.10
2019-06-01T10:05:58.431Z,77.90
2019-06-01T10:08:32.410Z,77.80
2019-06-01T10:11:16.037Z,77.00
2019-06-01T10:13:59.790Z,75.70
2019-06-01T10:16:43.445Z,75.60
2019-06-01T10:19:27.692Z,75.30
2019-06-01T10:22:12.449Z,74.80
2019-06-01T10:24:56.298Z,76.60
2019-06-01T10:27:40.584Z,74.10
2019-06-01T10:30:24.110Z,74.90
2019-06-01T10:33:07.827Z,73.90
2019-06-01T10:35:51.629Z,73.70
2019-06-01T10:38:35.477Z,73.70
2019-06-01T10:41:19.984Z,71.80
2019-06-01T10:44:04.294Z,72.70
2019-06-01T10:46:48.004Z,70.60
2019-06-01T10:49:31.851Z,72.10
2019-06-01T10:52:15.655Z,70.70
2019-06-01T10:54:59.988Z,69.40
2019-06-01T10:57:44.173Z,70.60
2019-06-01T11:00:39.694Z,68.40
2019-06-01T11:03:14.552Z,69.90
2019-06-01T11:05:59.897Z,70.70
2019-06-01T11:08:43.622Z,70.40
2019-06-01T11:11:29.745Z,69.20
2019-06-01T11:14:14.058Z,68.90
2019-06-01T11:16:58.414Z,68.00
2019-06-01T11:19:43.694Z,69.40
2019-06-01T11:22:28.134Z,71.90
2019-06-01T11:25:11.795Z,70.90
2019-06-01T11:27:56.019Z,69.70
2019-06-01T11:30:40.217Z,69.80
2019-06-01T11:33:23.827Z,71.40
2019-06-01T11:36:08.438Z,69.60
2019-06-01T11:38:53.155Z,70.10
2019-06-01T11:41:25.885Z,68.20
2019-06-01T11:44:10.271Z,67.80
2019-06-01T11:46:53.983Z,68.90
2019-06-01T11:49:38.676Z,71.30
2019-06-01T11:52:23.140Z,71.20
2019-06-01T11:55:07.518Z,71.40
2019-06-01T11:57:51.307Z,71.60
2019-06-01T12:00:35.780Z,72.20
2019-06-01T12:03:19.996Z,71.00
2019-06-01T12:06:03.612Z,72.40
2019-06-01T12:08:47.285Z,71.90
2019-06-01T12:11:31.456Z,73.90
2019-06-01T12:14:15.930Z,74.70
2019-06-01T12:16:59.131Z,77.60
2019-06-01T12:19:44.769Z,77.20
2019-06-01T12:22:30.529Z,76.30
2019-06-01T12:25:14.464Z,77.40
2019-06-01T12:27:58.943Z,75.70
2019-06-01T12:30:43.739Z,77.50
2019-06-01T12:33:27.850Z,79.00
2019-06-01T12:36:00.133Z,76.10
2019-06-01T12:38:52.178Z,77.10
2019-06-01T12:41:36.718Z,77.10
2019-06-01T12:44:20.419Z,75.30
2019-06-01T12:47:04.657Z,75.90
2019-06-01T12:49:48.940Z,77.60
2019-06-01T12:52:22.577Z,77.00
2019-06-01T12:55:06.788Z,77.00
2019-06-01T12:57:51.346Z,75.60
2019-06-01T13:00:35.536Z,77.40
2019-06-01T13:03:19.515Z,78.20
2019-06-01T13:06:04.008Z,77.90
2019-06-01T13:08:48.870Z,79.30
2019-06-01T13:11:22.618Z,78.40
2019-06-01T13:14:07.071Z,80.60
2019-06-01T13:17:05.954Z,81.30
2019-06-01T13:19:36.216Z,81.30
2019-06-01T13:22:20.070Z,82.60
2019-06-01T13:25:04.625Z,80.30
2019-06-01T13:27:49.052Z,76.40
2019-06-01T13:30:34.589Z,82.80
2019-06-01T13:33:18.834Z,85.70
2019-06-01T13:36:04.220Z,84.00
2019-06-01T13:38:48.798Z,86.20
2019-06-01T13:41:32.221Z,86.80
2019-06-01T13:44:16.160Z,82.30
2019-06-01T13:47:00.166Z,83.30
2019-06-01T13:49:46.852Z,82.60
2019-06-01T13:52:32.292Z,85.30
2019-06-01T13:55:16.627Z,88.20
2019-06-01T13:58:01.023Z,89.90
2019-06-01T14:00:46.215Z,90.90
2019-06-01T14:03:29.957Z,91.90
2019-06-01T14:06:13.580Z,92.00
2019-06-01T14:08:57.659Z,91.90
2019-06-01T14:11:41.736Z,92.40
2019-06-01T14:14:26.501Z,93.50
2019-06-01T14:17:10.804Z,93.40
2019-06-01T14:19:55.885Z,95.00
2019-06-01T14:22:40.306Z,94.00
2019-06-01T14:25:24.455Z,93.70
2019-06-01T14:28:08.668Z,94.00
2019-06-01T14:30:54.282Z,94.60
2019-06-01T14:33:38.781Z,96.10
2019-06-01T14:36:23.114Z,96.50
2019-06-01T14:39:08.342Z,96.20
2019-06-01T14:41:53.490Z,95.60
2019-06-01T14:44:37.315Z,97.50
2019-06-01T14:47:21.196Z,97.70
2019-06-01T14:50:05.252Z,97.80
2019-06-01T14:52:49.947Z,99.30
2019-06-01T14:55:34.352Z,98.50
2019-06-01T14:58:18.461Z,98.90
2019-06-01T15:01:02.557Z,97.90
2019-06-01T15:03:48.134Z,97.70
2019-06-01T15:06:33.020Z,98.10
2019-06-01T15:09:19.463Z,97.40
2019-06-01T15:12:02.072Z,97.30
2019-06-01T15:14:48.446Z,98.00
2019-06-01T15:17:32.912Z,97.30
2019-06-01T15:20:17.529Z,97.00
2019-06-01T15:23:03.600Z,97.30
2019-06-01T15:25:47.430Z,97.90
2019-06-01T15:28:31.524Z,98.10
2019-06-01T15:31:15.556Z,97.70
2019-06-01T15:33:59.821Z,97.80
2019-06-01T15:36:44.463Z,97.30
2019-06-01T15:39:28.683Z,97.40
2019-06-01T15:42:12.410Z,98.20
2019-06-01T15:44:57.245Z,97.30
2019-06-01T15:47:41.692Z,97.30
2019-06-01T15:50:25.909Z,97.80
2019-06-01T15:52:59.331Z,97.40
2019-06-01T15:55:43.695Z,97.80
2019-06-01T15:58:27.581Z,97.70
2019-06-01T16:01:12.125Z,98.00
2019-06-01T16:03:57.329Z,98.30
2019-06-01T16:06:41.131Z,98.40
2019-06-01T16:09:41.581Z,98.60
2019-06-01T16:12:10.834Z,98.40
2019-06-01T16:14:55.562Z,98.20
2019-06-01T16:17:39.914Z,98.60
2019-06-01T16:20:23.609Z,98.30
2019-06-01T16:23:07.663Z,98.60
2019-06-01T16:26:04.874Z,98.50
2019-06-01T16:28:37.822Z,98.50
2019-06-01T16:31:22.146Z,98.30
2019-06-01T16:33:56.474Z,98.50
2019-06-01T16:36:40.630Z,98.90
2019-06-01T16:39:25.015Z,98.90
2019-06-01T16:42:08.738Z,99.10
2019-06-01T16:44:52.921Z,99.30
2019-06-01T16:47:37.230Z,99.10
2019-06-01T16:50:20.849Z,99.10
2019-06-01T16:52:53.768Z,98.90
2019-06-01T16:55:37.675Z,99.00
2019-06-01T16:58:12.194Z,98.80
2019-06-01T17:00:56.399Z,99.40
2019-06-01T17:03:40.516Z,99.00
2019-06-01T17:06:24.960Z,98.60
2019-06-01T17:09:09.082Z,98.70
2019-06-01T17:11:53.245Z,99.00
2019-06-01T17:15:07.146Z,99.30
2019-06-01T17:18:05.059Z,99.00
2019-06-01T17:20:47.540Z,99.10
2019-06-01T17:23:33.155Z,98.80
2019-06-01T17:26:17.183Z,98.90
2019-06-01T17:29:02.108Z,98.70
2019-06-01T17:31:54.353Z,98.40
2019-06-01T17:34:31.805Z,98.80
2019-06-01T17:37:16.217Z,98.60
2019-06-01T17:40:00.058Z,98.40
2019-06-01T17:42:43.867Z,98.60
2019-06-01T17:45:28.286Z,98.60
2019-06-01T17:48:25.064Z,98.70
2019-06-01T17:50:58.240Z,98.70
2019-06-01T17:53:42.690Z,98.60
2019-06-01T17:56:26.981Z,98.60
2019-06-01T17:59:11.569Z,98.90
2019-06-01T18:01:56.158Z,98.90
2019-06-01T18:04:40.845Z,98.80
2019-06-01T18:07:24.441Z,98.60
2019-06-01T18:10:10.179Z,98.70
2019-06-01T18:12:54.160Z,98.90
2019-06-01T18:15:38.883Z,98.70
2019-06-01T18:18:22.684Z,98.70
2019-06-01T18:21:06.775Z,98.50
2019-06-01T18:23:51.374Z,98.90
2019-06-01T18:26:35.949Z,98.80
2019-06-01T18:29:20.394Z,98.90
2019-06-01T18:32:05.761Z,98.80
2019-06-01T18:34:49.654Z,98.70
2019-06-01T18:37:33.696Z,99.00
2019-06-01T18:40:18.677Z,99.30
2019-06-01T18:43:05.919Z,99.20
2019-06-01T18:45:49.975Z,99.40
2019-06-01T18:48:34.439Z,99.40
2019-06-01T18:51:18.878Z,99.40
2019-06-01T18:54:04.234Z,99.50
2019-06-01T18:56:48.414Z,99.50
2019-06-01T18:59:32.933Z,99.50
2019-06-01T19:02:17.702Z,99.50
2019-06-01T19:05:02.105Z,99.60
2019-06-01T19:07:46.555Z,99.50
2019-06-01T19:10:30.687Z,99.70
2019-06-01T19:13:14.371Z,99.80
2019-06-01T19:15:58.699Z,99.70
2019-06-01T19:18:43.212Z,99.70
2019-06-01T19:21:27.278Z,99.80
2019-06-01T19:24:12.708Z,99.80
2019-06-01T19:26:57.149Z,99.80
2019-06-01T19:29:29.893Z,99.80
2019-06-01T19:32:15.024Z,99.90
2019-06-01T19:34:59.961Z,99.90
2019-06-01T19:37:43.630Z,99.90
2019-06-01T19:40:32.100Z,99.80
2019-06-01T19:43:16.063Z,99.70
2019-06-01T19:45:59.635Z,99.90
2019-06-01T19:48:43.512Z,99.90
2019-06-01T19:51:27.373Z,99.70
2019-06-01T19:54:11.074Z,99.60
2019-06-01T19:56:55.428Z,99.80
2019-06-01T19:59:39.949Z,99.70
2019-06-01T20:02:33.294Z,99.50
2019-06-01T20:04:58.815Z,99.60
2019-06-01T20:07:31.716Z,99.80
2019-06-01T20:10:23.477Z,99.90
2019-06-01T20:12:55.885Z,99.90
2019-06-01T20:15:28.301Z,99.90
2019-06-01T20:18:01.421Z,99.90
2019-06-01T20:20:33.757Z,99.90
2019-06-01T20:23:06.126Z,99.90
2019-06-01T20:25:38.514Z,99.90
2019-06-01T20:28:11.631Z,99.90
2019-06-01T20:30:44.106Z,99.90
2019-06-01T20:33:16.436Z,99.90
2019-06-01T20:35:48.711Z,99.90
2019-06-01T20:38:23.034Z,99.90
2019-06-01T20:40:55.121Z,99.90
2019-06-01T20:43:27.405Z,99.90
2019-06-01T20:46:00.102Z,99.90
2019-06-01T20:48:32.451Z,99.90
2019-06-01T20:51:04.739Z,99.90
2019-06-01T20:53:37.059Z,99.90
2019-06-01T20:56:09.354Z,99.90
2019-06-01T20:58:41.716Z,99.90
2019-06-01T21:01:14.084Z,99.90
2019-06-01T21:03:46.384Z,99.90
2019-06-01T21:06:20.416Z,99.90
2019-06-01T21:08:52.701Z,99.90
2019-06-01T21:11:25.043Z,99.90
2019-06-01T21:13:57.427Z,99.90
2019-06-01T21:16:30.100Z,99.90
2019-06-01T21:19:02.749Z,99.90
2019-06-01T21:21:35.074Z,99.90
2019-06-01T21:24:07.343Z,99.90
2019-06-01T21:26:39.703Z,99.90
2019-06-01T21:29:12.062Z,99.90
2019-06-01T21:31:45.039Z,99.90
2019-06-01T21:34:17.653Z,99.90
2019-06-01T21:36:49.917Z,99.90
2019-06-01T21:39:23.481Z,99.90
2019-06-01T21:41:56.235Z,99.90
2019-06-01T21:44:29.526Z,99.90
2019-06-01T21:47:02.983Z,99.90
2019-06-01T21:49:35.359Z,99.90
2019-06-01T21:52:07.648Z,99.90
2019-06-01T21:54:40.086Z,99.90
2019-06-01T21:57:12.365Z,99.90
2019-06-01T21:59:44.685Z,99.90
2019-06-01T22:02:17.104Z,99.90
2019-06-01T22:04:49.402Z,99.90
2019-06-01T22:07:23.003Z,99.90
2019-06-01T22:09:55.597Z,99.90
2019-06-01T22:12:27.949Z,99.90
2019-06-01T22:15:00.205Z,99.90
2019-06-01T22:17:33.339Z,99.90
2019-06-01T22:20:06.626Z,99.90
2019-06-01T22:22:38.994Z,99.90
2019-06-01T22:25:12.920Z,99.90
2019-06-01T22:27:45.234Z,99.90
2019-06-01T22:30:18.412Z,99.90
2019-06-01T22:32:50.748Z,99.90
2019-06-01T22:35:23.027Z,99.90
2019-06-01T22:37:55.438Z,99.90
2019-06-01T22:40:29.373Z,99.90
2019-06-01T22:43:01.749Z,99.90
2019-06-01T22:45:34.843Z,99.90
2019-06-01T22:48:07.128Z,99.90
2019-06-01T22:50:39.516Z,99.90
2019-06-01T22:53:11.811Z,99.90
2019-06-01T22:55:44.154Z,99.90
2019-06-01T22:58:17.434Z,99.90
2019-06-01T23:00:50.187Z,99.90
2019-06-01T23:03:23.526Z,99.90
2019-06-01T23:05:56.332Z,99.90
2019-06-01T23:08:29.496Z,99.90
2019-06-01T23:11:02.419Z,99.90
2019-06-01T23:13:34.988Z,99.90
2019-06-01T23:16:07.288Z,99.90
2019-06-01T23:18:39.641Z,99.90
2019-06-01T23:21:11.993Z,99.90
2019-06-01T23:23:44.332Z,99.90
2019-06-01T23:26:16.668Z,99.90
2019-06-01T23:28:48.959Z,99.90
2019-06-01T23:31:22.238Z,99.90
2019-06-01T23:33:54.710Z,99.90
2019-06-01T23:36:27.074Z,99.90
2019-06-01T23:38:59.636Z,99.90
2019-06-01T23:41:32.934Z,99.90
2019-06-01T23:44:11.648Z,99.90
2019-06-01T23:46:40.541Z,99.90
2019-06-01T23:49:12.871Z,99.90
2019-06-01T23:51:45.458Z,99.90
2019-06-01T23:54:17.739Z,99.90
2019-06-01T23:56:50.879Z,99.90
2019-06-01T23:59:24.057Z,99.90
